sensor_id;sensor_type;location;lat;lon;timestamp;pressure;altitude;pressure_sealevel;temperature;humidity
64544;BME280;50936;51.660;5.616;2023-02-19T00:01:46;101424.72;;;9.68;100.00
64544;BME280;50936;51.660;5.616;2023-02-19T00:04:19;101424.78;;;9.66;100.00
64544;BME280;50936;51.660;5.616;2023-02-19T00:06:50;101419.56;;;9.63;100.00
64544;BME280;50936;51.660;5.616;2023-02-19T00:09:18;101427.75;;;9.61;100.00
64544;BME280;50936;51.660;5.616;2023-02-19T00:11:46;101422.53;;;9.58;100.00
64544;BME280;50936;51.660;5.616;2023-02-19T00:14:15;101415.59;;;9.54;100.00
64544;BME280;50936;51.660;5.616;2023-02-19T00:16:45;101415.75;;;9.51;100.00
64544;BME280;50936;51.660;5.616;2023-02-19T00:19:15;101415.91;;;9.48;100.00
64544;BME280;50936;51.660;5.616;2023-02-19T00:21:44;101411.50;;;9.47;100.00
64544;BME280;50936;51.660;5.616;2023-02-19T00:24:13;101416.06;;;9.45;100.00
64544;BME280;50936;51.660;5.616;2023-02-19T00:26:41;101420.59;;;9.44;100.00
64544;BME280;50936;51.660;5.616;2023-02-19T00:29:17;101416.97;;;9.46;100.00
64544;BME280;50936;51.660;5.616;2023-02-19T00:31:46;101417.81;;;9.46;100.00
64544;BME280;50936;51.660;5.616;2023-02-19T00:34:13;101426.84;;;9.45;100.00
64544;BME280;50936;51.660;5.616;2023-02-19T00:36:41;101426.84;;;9.45;100.00
64544;BME280;50936;51.660;5.616;2023-02-19T00:39:11;101420.69;;;9.43;100.00
64544;BME280;50936;51.660;5.616;2023-02-19T00:41:41;101422.44;;;9.44;100.00
64544;BME280;50936;51.660;5.616;2023-02-19T00:44:10;101423.38;;;9.43;100.00
64544;BME280;50936;51.660;5.616;2023-02-19T00:46:43;101428.78;;;9.43;100.00
64544;BME280;50936;51.660;5.616;2023-02-19T00:49:18;101422.44;;;9.44;100.00
64544;BME280;50936;51.660;5.616;2023-02-19T00:51:49;101433.13;;;9.46;100.00
64544;BME280;50936;51.660;5.616;2023-02-19T00:54:18;101426.69;;;9.48;100.00
64544;BME280;50936;51.660;5.616;2023-02-19T00:56:48;101432.88;;;9.50;100.00
64544;BME280;50936;51.660;5.616;2023-02-19T00:59:16;101426.53;;;9.51;100.00
64544;BME280;50936;51.660;5.616;2023-02-19T01:01:43;101426.53;;;9.51;100.00
64544;BME280;50936;51.660;5.616;2023-02-19T01:04:10;101436.47;;;9.51;100.00
64544;BME280;50936;51.660;5.616;2023-02-19T01:06:37;101434.63;;;9.51;100.00
64544;BME280;50936;51.660;5.616;2023-02-19T01:09:04;101432.63;;;9.55;100.00
64544;BME280;50936;51.660;5.616;2023-02-19T01:11:33;101435.25;;;9.56;100.00
64544;BME280;50936;51.660;5.616;2023-02-19T01:14:01;101434.28;;;9.57;100.00
64544;BME280;50936;51.660;5.616;2023-02-19T01:16:29;101429.94;;;9.55;100.00
64544;BME280;50936;51.660;5.616;2023-02-19T01:18:56;101433.56;;;9.54;100.00
64544;BME280;50936;51.660;5.616;2023-02-19T01:21:26;101437.16;;;9.54;100.00
64544;BME280;50936;51.660;5.616;2023-02-19T01:23:55;101439.84;;;9.54;100.00
64544;BME280;50936;51.660;5.616;2023-02-19T01:26:28;101448.81;;;9.55;100.00
64544;BME280;50936;51.660;5.616;2023-02-19T01:28:57;101431.75;;;9.54;100.00
64544;BME280;50936;51.660;5.616;2023-02-19T01:31:25;101450.81;;;9.51;100.00
64544;BME280;50936;51.660;5.616;2023-02-19T01:33:59;101444.44;;;9.52;100.00
64544;BME280;50936;51.660;5.616;2023-02-19T01:36:31;101462.53;;;9.50;100.00
64544;BME280;50936;51.660;5.616;2023-02-19T01:39:00;101447.41;;;9.48;100.00
64544;BME280;50936;51.660;5.616;2023-02-19T01:41:32;101454.34;;;9.52;100.00
64544;BME280;50936;51.660;5.616;2023-02-19T01:46:38;101457.13;;;9.50;100.00
64544;BME280;50936;51.660;5.616;2023-02-19T01:51:56;101470.63;;;9.50;100.00
64544;BME280;50936;51.660;5.616;2023-02-19T01:54:27;101464.28;;;9.51;100.00
64544;BME280;50936;51.660;5.616;2023-02-19T01:56:58;101467.84;;;9.52;100.00
64544;BME280;50936;51.660;5.616;2023-02-19T01:59:30;101457.91;;;9.52;100.00
64544;BME280;50936;51.660;5.616;2023-02-19T02:01:59;101461.59;;;9.51;100.00
64544;BME280;50936;51.660;5.616;2023-02-19T02:04:29;101454.34;;;9.52;100.00
64544;BME280;50936;51.660;5.616;2023-02-19T02:06:58;101457.84;;;9.54;100.00
64544;BME280;50936;51.660;5.616;2023-02-19T02:09:29;101466.00;;;9.52;100.00
64544;BME280;50936;51.660;5.616;2023-02-19T02:12:15;101458.81;;;9.53;100.00
64544;BME280;50936;51.660;5.616;2023-02-19T02:14:44;101453.50;;;9.51;100.00
64544;BME280;50936;51.660;5.616;2023-02-19T02:17:55;101458.03;;;9.51;100.00
64544;BME280;50936;51.660;5.616;2023-02-19T02:23:08;101444.63;;;9.49;100.00
64544;BME280;50936;51.660;5.616;2023-02-19T02:26:07;101461.75;;;9.48;100.00
64544;BME280;50936;51.660;5.616;2023-02-19T02:31:34;101458.28;;;9.46;100.00
64544;BME280;50936;51.660;5.616;2023-02-19T02:34:22;101461.91;;;9.45;100.00
64544;BME280;50936;51.660;5.616;2023-02-19T02:36:54;101466.50;;;9.43;100.00
64544;BME280;50936;51.660;5.616;2023-02-19T02:39:24;101470.19;;;9.42;100.00
64544;BME280;50936;51.660;5.616;2023-02-19T02:41:56;101470.19;;;9.42;100.00
64544;BME280;50936;51.660;5.616;2023-02-19T02:44:53;101459.72;;;9.36;100.00
64544;BME280;50936;51.660;5.616;2023-02-19T02:47:57;101462.69;;;9.31;100.00
64544;BME280;50936;51.660;5.616;2023-02-19T02:50:30;101467.38;;;9.28;100.00
64544;BME280;50936;51.660;5.616;2023-02-19T02:53:04;101471.00;;;9.27;100.00
64544;BME280;50936;51.660;5.616;2023-02-19T02:56:14;101468.41;;;9.25;100.00
64544;BME280;50936;51.660;5.616;2023-02-19T02:58:43;101465.94;;;9.20;100.00
64544;BME280;50936;51.660;5.616;2023-02-19T03:01:30;101469.78;;;9.16;100.00
64544;BME280;50936;51.660;5.616;2023-02-19T03:07:05;101476.72;;;9.20;100.00
64544;BME280;50936;51.660;5.616;2023-02-19T03:09:40;101473.97;;;9.22;100.00
64544;BME280;50936;51.660;5.616;2023-02-19T03:12:14;101483.69;;;9.24;100.00
64544;BME280;50936;51.660;5.616;2023-02-19T03:15:06;101482.81;;;9.24;100.00
64544;BME280;50936;51.660;5.616;2023-02-19T03:18:00;101489.09;;;9.24;100.00
64544;BME280;50936;51.660;5.616;2023-02-19T03:20:54;101493.69;;;9.22;100.00
64544;BME280;50936;51.660;5.616;2023-02-19T03:23:26;101493.69;;;9.22;100.00
64544;BME280;50936;51.660;5.616;2023-02-19T03:26:17;101499.16;;;9.21;100.00
64544;BME280;50936;51.660;5.616;2023-02-19T03:28:51;101492.75;;;9.23;100.00
64544;BME280;50936;51.660;5.616;2023-02-19T03:31:40;101489.09;;;9.24;100.00
64544;BME280;50936;51.660;5.616;2023-02-19T03:34:19;101491.00;;;9.22;100.00
64544;BME280;50936;51.660;5.616;2023-02-19T03:36:58;101489.09;;;9.24;100.00
64544;BME280;50936;51.660;5.616;2023-02-19T03:39:32;101501.63;;;9.25;100.00
64544;BME280;50936;51.660;5.616;2023-02-19T03:42:34;101497.94;;;9.27;100.00
64544;BME280;50936;51.660;5.616;2023-02-19T03:45:17;101500.56;;;9.28;100.00
64544;BME280;50936;51.660;5.616;2023-02-19T03:51:15;101512.25;;;9.29;100.00
64544;BME280;50936;51.660;5.616;2023-02-19T03:54:18;101518.25;;;9.34;100.00
64544;BME280;50936;51.660;5.616;2023-02-19T03:57:02;101520.94;;;9.34;100.00
64544;BME280;50936;51.660;5.616;2023-02-19T03:59:39;101516.44;;;9.34;100.00
64544;BME280;50936;51.660;5.616;2023-02-19T04:05:20;101527.94;;;9.38;100.00
64544;BME280;50936;51.660;5.616;2023-02-19T04:07:54;101543.22;;;9.37;100.00
64544;BME280;50936;51.660;5.616;2023-02-19T04:10:32;101541.41;;;9.38;100.00
64544;BME280;50936;51.660;5.616;2023-02-19T04:13:37;101541.41;;;9.38;100.00
64544;BME280;50936;51.660;5.616;2023-02-19T04:16:15;101553.13;;;9.37;100.00
64544;BME280;50936;51.660;5.616;2023-02-19T04:18:48;101549.50;;;9.38;100.00
64544;BME280;50936;51.660;5.616;2023-02-19T04:21:21;101558.38;;;9.40;100.00
64544;BME280;50936;51.660;5.616;2023-02-19T04:23:49;101551.94;;;9.42;100.00
64544;BME280;50936;51.660;5.616;2023-02-19T04:26:19;101555.69;;;9.40;100.00
64544;BME280;50936;51.660;5.616;2023-02-19T04:28:48;101555.75;;;9.38;100.00
64544;BME280;50936;51.660;5.616;2023-02-19T04:31:15;101562.97;;;9.38;100.00
64544;BME280;50936;51.660;5.616;2023-02-19T04:33:42;101563.91;;;9.37;100.00
64544;BME280;50936;51.660;5.616;2023-02-19T04:36:09;101564.06;;;9.34;100.00
64544;BME280;50936;51.660;5.616;2023-02-19T04:38:37;101567.81;;;9.31;100.00
64544;BME280;50936;51.660;5.616;2023-02-19T04:41:04;101566.16;;;9.29;100.00
64544;BME280;50936;51.660;5.616;2023-02-19T04:43:31;101576.94;;;9.29;100.00
64544;BME280;50936;51.660;5.616;2023-02-19T04:46:00;101576.94;;;9.29;100.00
64544;BME280;50936;51.660;5.616;2023-02-19T04:48:28;101578.81;;;9.27;100.00
64544;BME280;50936;51.660;5.616;2023-02-19T04:50:55;101592.41;;;9.25;100.00
64544;BME280;50936;51.660;5.616;2023-02-19T04:53:22;101604.19;;;9.22;100.00
64544;BME280;50936;51.660;5.616;2023-02-19T04:55:49;101607.16;;;9.18;100.00
64544;BME280;50936;51.660;5.616;2023-02-19T04:58:20;101611.91;;;9.13;100.00
64544;BME280;50936;51.660;5.616;2023-02-19T05:00:51;101626.56;;;9.07;100.00
64544;BME280;50936;51.660;5.616;2023-02-19T05:03:18;101624.16;;;9.01;100.00
64544;BME280;50936;51.660;5.616;2023-02-19T05:05:45;101632.56;;;8.95;100.00
64544;BME280;50936;51.660;5.616;2023-02-19T05:08:12;101628.41;;;8.88;100.00
64544;BME280;50936;51.660;5.616;2023-02-19T05:10:39;101634.91;;;8.83;100.00
64544;BME280;50936;51.660;5.616;2023-02-19T05:13:06;101631.56;;;8.78;100.00
64544;BME280;50936;51.660;5.616;2023-02-19T05:15:33;101634.50;;;8.74;100.00
64544;BME280;50936;51.660;5.616;2023-02-19T05:18:00;101632.03;;;8.69;100.00
64544;BME280;50936;51.660;5.616;2023-02-19T05:20:27;101641.88;;;8.70;100.00
64544;BME280;50936;51.660;5.616;2023-02-19T05:22:53;101636.47;;;8.70;100.00
64544;BME280;50936;51.660;5.616;2023-02-19T05:25:20;101629.41;;;8.67;100.00
64544;BME280;50936;51.660;5.616;2023-02-19T05:27:47;101632.16;;;8.66;100.00
64544;BME280;50936;51.660;5.616;2023-02-19T05:30:14;101635.81;;;8.65;100.00
64544;BME280;50936;51.660;5.616;2023-02-19T05:32:41;101636.69;;;8.65;100.00
64544;BME280;50936;51.660;5.616;2023-02-19T05:35:08;101643.91;;;8.65;100.00
64544;BME280;50936;51.660;5.616;2023-02-19T05:37:35;101637.72;;;8.63;100.00
64544;BME280;50936;51.660;5.616;2023-02-19T05:40:02;101646.66;;;8.63;100.00
64544;BME280;50936;51.660;5.616;2023-02-19T05:42:29;101643.09;;;8.63;100.00
64544;BME280;50936;51.660;5.616;2023-02-19T05:44:56;101647.59;;;8.62;100.00
64544;BME280;50936;51.660;5.616;2023-02-19T05:47:23;101643.19;;;8.61;100.00
64544;BME280;50936;51.660;5.616;2023-02-19T05:49:49;101653.88;;;8.63;100.00
64544;BME280;50936;51.660;5.616;2023-02-19T05:52:16;101651.19;;;8.63;100.00
64544;BME280;50936;51.660;5.616;2023-02-19T05:54:43;101656.41;;;8.66;100.00
64544;BME280;50936;51.660;5.616;2023-02-19T05:57:10;101652.78;;;8.67;100.00
64544;BME280;50936;51.660;5.616;2023-02-19T05:59:37;101660.72;;;8.70;100.00
64544;BME280;50936;51.660;5.616;2023-02-19T06:02:03;101653.44;;;8.72;100.00
64544;BME280;50936;51.660;5.616;2023-02-19T06:04:30;101651.66;;;8.71;100.00
64544;BME280;50936;51.660;5.616;2023-02-19T06:06:57;101649.94;;;8.70;100.00
64544;BME280;50936;51.660;5.616;2023-02-19T06:09:24;101657.06;;;8.71;100.00
64544;BME280;50936;51.660;5.616;2023-02-19T06:11:51;101665.94;;;8.73;100.00
64544;BME280;50936;51.660;5.616;2023-02-19T06:14:17;101670.44;;;8.73;100.00
64544;BME280;50936;51.660;5.616;2023-02-19T06:16:44;101669.72;;;8.69;100.00
64544;BME280;50936;51.660;5.616;2023-02-19T06:19:11;101677.94;;;8.66;100.00
64544;BME280;50936;51.660;5.616;2023-02-19T06:21:38;101675.41;;;8.63;100.00
64544;BME280;50936;51.660;5.616;2023-02-19T06:24:06;101685.53;;;8.58;100.00
64544;BME280;50936;51.660;5.616;2023-02-19T06:26:34;101682.97;;;8.55;100.00
64544;BME280;50936;51.660;5.616;2023-02-19T06:29:02;101686.63;;;8.54;100.00
64544;BME280;50936;51.660;5.616;2023-02-19T06:31:29;101684.88;;;8.53;100.00
64544;BME280;50936;51.660;5.616;2023-02-19T06:33:56;101679.50;;;8.53;100.00
64544;BME280;50936;51.660;5.616;2023-02-19T06:36:23;101689.41;;;8.52;100.00
64544;BME280;50936;51.660;5.616;2023-02-19T06:38:50;101700.09;;;8.54;100.00
64544;BME280;50936;51.660;5.616;2023-02-19T06:41:17;101709.91;;;8.55;100.00
64544;BME280;50936;51.660;5.616;2023-02-19T06:43:44;101722.44;;;8.56;100.00
64544;BME280;50936;51.660;5.616;2023-02-19T06:46:12;101722.25;;;8.59;100.00
64544;BME280;50936;51.660;5.616;2023-02-19T06:48:41;101719.44;;;8.62;100.00
64544;BME280;50936;51.660;5.616;2023-02-19T06:51:14;101718.50;;;8.63;100.00
64544;BME280;50936;51.660;5.616;2023-02-19T06:53:49;101718.34;;;8.66;100.00
64544;BME280;50936;51.660;5.616;2023-02-19T06:58:54;101722.66;;;8.70;100.00
64544;BME280;50936;51.660;5.616;2023-02-19T07:01:22;101718.19;;;8.69;100.00
64544;BME280;50936;51.660;5.616;2023-02-19T07:03:49;101721.69;;;8.71;100.00
64544;BME280;50936;51.660;5.616;2023-02-19T07:06:19;101722.66;;;8.70;100.00
64544;BME280;50936;51.660;5.616;2023-02-19T07:08:47;101725.19;;;8.73;100.00
64544;BME280;50936;51.660;5.616;2023-02-19T07:11:14;101735.03;;;8.74;100.00
64544;BME280;50936;51.660;5.616;2023-02-19T07:13:42;101743.91;;;8.76;100.00
64544;BME280;50936;51.660;5.616;2023-02-19T07:16:09;101742.94;;;8.77;100.00
64544;BME280;50936;51.660;5.616;2023-02-19T07:18:38;101750.09;;;8.78;100.00
64544;BME280;50936;51.660;5.616;2023-02-19T07:21:10;101758.97;;;8.80;100.00
64544;BME280;50936;51.660;5.616;2023-02-19T07:23:39;101753.44;;;8.83;100.00
64544;BME280;50936;51.660;5.616;2023-02-19T07:26:16;101760.56;;;8.84;100.00
64544;BME280;50936;51.660;5.616;2023-02-19T07:28:46;101773.88;;;8.88;100.00
64544;BME280;50936;51.660;5.616;2023-02-19T07:31:16;101776.59;;;8.88;100.00
64544;BME280;50936;51.660;5.616;2023-02-19T07:33:45;101781.09;;;8.87;100.00
64544;BME280;50936;51.660;5.616;2023-02-19T07:36:14;101782.22;;;8.83;100.00
64544;BME280;50936;51.660;5.616;2023-02-19T07:38:43;101784.91;;;8.83;100.00
64544;BME280;50936;51.660;5.616;2023-02-19T07:41:10;101798.56;;;8.78;100.00
64544;BME280;50936;51.660;5.616;2023-02-19T07:43:38;101800.75;;;8.70;100.00
64544;BME280;50936;51.660;5.616;2023-02-19T07:46:08;101804.53;;;8.66;100.00
64544;BME280;50936;51.660;5.616;2023-02-19T07:48:37;101819.06;;;8.62;100.00
64544;BME280;50936;51.660;5.616;2023-02-19T07:51:08;101820.22;;;8.56;100.00
64544;BME280;50936;51.660;5.616;2023-02-19T07:53:38;101820.44;;;8.52;100.00
64544;BME280;50936;51.660;5.616;2023-02-19T07:56:06;101828.66;;;8.48;100.00
64544;BME280;50936;51.660;5.616;2023-02-19T07:58:34;101834.03;;;8.48;100.00
64544;BME280;50936;51.660;5.616;2023-02-19T08:01:12;101836.81;;;8.47;100.00
64544;BME280;50936;51.660;5.616;2023-02-19T08:03:41;101844.06;;;8.45;100.00
64544;BME280;50936;51.660;5.616;2023-02-19T08:06:09;101844.94;;;8.45;100.00
64544;BME280;50936;51.660;5.616;2023-02-19T08:08:38;101850.34;;;8.45;100.00
64544;BME280;50936;51.660;5.616;2023-02-19T08:11:06;101850.19;;;8.48;100.00
64544;BME280;50936;51.660;5.616;2023-02-19T08:13:52;101855.59;;;8.48;100.00
64544;BME280;50936;51.660;5.616;2023-02-19T08:16:20;101861.78;;;8.51;100.00
64544;BME280;50936;51.660;5.616;2023-02-19T08:19:07;101857.19;;;8.53;100.00
64544;BME280;50936;51.660;5.616;2023-02-19T08:21:34;101860.69;;;8.55;100.00
64544;BME280;50936;51.660;5.616;2023-02-19T08:24:01;101868.69;;;8.56;100.00
64544;BME280;50936;51.660;5.616;2023-02-19T08:26:27;101861.44;;;8.58;100.00
64544;BME280;50936;51.660;5.616;2023-02-19T08:28:54;101865.94;;;8.58;100.00
64544;BME280;50936;51.660;5.616;2023-02-19T08:31:21;101862.28;;;8.59;100.00
64544;BME280;50936;51.660;5.616;2023-02-19T08:33:49;101865.81;;;8.61;100.00
64544;BME280;50936;51.660;5.616;2023-02-19T08:36:16;101866.75;;;8.60;100.00
64544;BME280;50936;51.660;5.616;2023-02-19T08:38:43;101864.19;;;8.57;100.00
64544;BME280;50936;51.660;5.616;2023-02-19T08:41:11;101871.34;;;8.58;100.00
64544;BME280;50936;51.660;5.616;2023-02-19T08:43:40;101864.19;;;8.57;100.00
64544;BME280;50936;51.660;5.616;2023-02-19T08:46:09;101871.34;;;8.58;100.00
64544;BME280;50936;51.660;5.616;2023-02-19T08:48:38;101892.88;;;8.58;100.00
64544;BME280;50936;51.660;5.616;2023-02-19T08:51:08;101890.97;;;8.60;100.00
64544;BME280;50936;51.660;5.616;2023-02-19T08:53:39;101891.72;;;8.63;100.00
64544;BME280;50936;51.660;5.616;2023-02-19T08:56:08;101886.34;;;8.63;100.00
64544;BME280;50936;51.660;5.616;2023-02-19T08:58:40;101892.75;;;8.61;100.00
64544;BME280;50936;51.660;5.616;2023-02-19T09:01:17;101900.72;;;8.62;100.00
64544;BME280;50936;51.660;5.616;2023-02-19T09:03:44;101904.38;;;8.61;100.00
64544;BME280;50936;51.660;5.616;2023-02-19T09:06:16;101914.28;;;8.61;100.00
64544;BME280;50936;51.660;5.616;2023-02-19T09:08:45;101907.16;;;8.60;100.00
64544;BME280;50936;51.660;5.616;2023-02-19T09:11:12;101909.03;;;8.58;100.00
64544;BME280;50936;51.660;5.616;2023-02-19T09:13:39;101919.81;;;8.58;100.00
64544;BME280;50936;51.660;5.616;2023-02-19T09:16:06;101907.28;;;8.57;100.00
64544;BME280;50936;51.660;5.616;2023-02-19T09:18:34;101916.31;;;8.56;100.00
64544;BME280;50936;51.660;5.616;2023-02-19T09:21:03;101919.13;;;8.53;100.00
64544;BME280;50936;51.660;5.616;2023-02-19T09:23:35;101904.78;;;8.52;100.00
64544;BME280;50936;51.660;5.616;2023-02-19T09:26:03;101911.03;;;8.53;100.00
64544;BME280;50936;51.660;5.616;2023-02-19T09:28:34;101903.78;;;8.55;100.00
64544;BME280;50936;51.660;5.616;2023-02-19T09:31:05;101909.91;;;8.58;100.00
64544;BME280;50936;51.660;5.616;2023-02-19T09:33:34;101921.41;;;8.62;100.00
64544;BME280;50936;51.660;5.616;2023-02-19T09:36:02;101919.53;;;8.64;100.00
64544;BME280;50936;51.660;5.616;2023-02-19T09:38:29;101912.13;;;8.69;100.00
64544;BME280;50936;51.660;5.616;2023-02-19T09:40:57;101919.28;;;8.70;100.00
64544;BME280;50936;51.660;5.616;2023-02-19T09:43:26;101927.47;;;8.67;100.00
64544;BME280;50936;51.660;5.616;2023-02-19T09:46:02;101928.41;;;8.66;100.00
64544;BME280;50936;51.660;5.616;2023-02-19T09:48:37;101936.53;;;8.64;100.00
64544;BME280;50936;51.660;5.616;2023-02-19T09:51:04;101952.69;;;8.64;100.00
64544;BME280;50936;51.660;5.616;2023-02-19T09:53:41;101964.38;;;8.65;100.00
64544;BME280;50936;51.660;5.616;2023-02-19T09:56:11;101974.06;;;8.69;100.00
64544;BME280;50936;51.660;5.616;2023-02-19T09:58:52;101977.50;;;8.73;100.00
64544;BME280;50936;51.660;5.616;2023-02-19T10:01:25;101975.50;;;8.78;100.00
64544;BME280;50936;51.660;5.616;2023-02-19T10:03:54;101981.88;;;8.75;100.00
64544;BME280;50936;51.660;5.616;2023-02-19T10:06:24;101994.41;;;8.76;100.00
64544;BME280;50936;51.660;5.616;2023-02-19T10:09:20;101996.88;;;8.81;100.00
64544;BME280;50936;51.660;5.616;2023-02-19T10:11:50;101992.91;;;8.90;100.00
64544;BME280;50936;51.660;5.616;2023-02-19T10:17:22;102013.66;;;9.29;100.00
64544;BME280;50936;51.660;5.616;2023-02-19T10:19:52;102011.34;;;9.40;100.00
64544;BME280;50936;51.660;5.616;2023-02-19T10:22:19;102019.94;;;9.48;100.00
64544;BME280;50936;51.660;5.616;2023-02-19T10:24:51;102020.69;;;9.52;100.00
64544;BME280;50936;51.660;5.616;2023-02-19T10:27:19;102026.66;;;9.58;100.00
64544;BME280;50936;51.660;5.616;2023-02-19T10:29:47;102031.78;;;9.64;100.00
64544;BME280;50936;51.660;5.616;2023-02-19T10:32:21;102034.09;;;9.72;100.00
64544;BME280;50936;51.660;5.616;2023-02-19T10:35:13;102037.19;;;9.83;100.00
64544;BME280;50936;51.660;5.616;2023-02-19T10:37:49;102046.97;;;9.86;100.00
64544;BME280;50936;51.660;5.616;2023-02-19T10:40:26;102046.16;;;9.84;100.00
64544;BME280;50936;51.660;5.616;2023-02-19T10:43:01;102055.09;;;10.03;100.00
64544;BME280;50936;51.660;5.616;2023-02-19T10:45:39;102056.34;;;10.34;100.00
64544;BME280;50936;51.660;5.616;2023-02-19T10:48:26;102053.50;;;10.37;100.00
64544;BME280;50936;51.660;5.616;2023-02-19T10:51:00;102070.94;;;10.30;100.00
64544;BME280;50936;51.660;5.616;2023-02-19T10:56:29;102068.59;;;10.03;100.00
64544;BME280;50936;51.660;5.616;2023-02-19T11:04:30;102071.19;;;9.88;100.00
64544;BME280;50936;51.660;5.616;2023-02-19T11:07:14;102062.13;;;9.89;100.00
64544;BME280;50936;51.660;5.616;2023-02-19T11:09:47;102068.41;;;9.89;100.00
64544;BME280;50936;51.660;5.616;2023-02-19T11:12:30;102058.63;;;9.87;100.00
64544;BME280;50936;51.660;5.616;2023-02-19T11:15:18;102062.19;;;9.87;100.00
64544;BME280;50936;51.660;5.616;2023-02-19T11:20:26;102050.28;;;10.29;100.00
64544;BME280;50936;51.660;5.616;2023-02-19T11:23:09;102046.47;;;10.52;100.00
64544;BME280;50936;51.660;5.616;2023-02-19T11:25:48;102036.91;;;10.64;100.00
64544;BME280;50936;51.660;5.616;2023-02-19T11:31:22;102041.72;;;10.75;100.00
64544;BME280;50936;51.660;5.616;2023-02-19T11:33:57;102035.59;;;10.71;100.00
64544;BME280;50936;51.660;5.616;2023-02-19T11:36:35;102040.75;;;10.58;100.00
64544;BME280;50936;51.660;5.616;2023-02-19T11:53:27;102057.06;;;9.62;100.00
64544;BME280;50936;51.660;5.616;2023-02-19T11:56:17;102062.25;;;9.67;100.00
64544;BME280;50936;51.660;5.616;2023-02-19T11:59:02;102056.41;;;9.76;100.00
64544;BME280;50936;51.660;5.616;2023-02-19T12:01:59;102056.88;;;9.86;100.00
64544;BME280;50936;51.660;5.616;2023-02-19T12:07:51;102051.91;;;9.95;100.00
64544;BME280;50936;51.660;5.616;2023-02-19T12:22:41;102053.88;;;10.11;100.00
64544;BME280;50936;51.660;5.616;2023-02-19T12:31:58;102054.84;;;10.10;100.00
64544;BME280;50936;51.660;5.616;2023-02-19T12:45:39;102064.81;;;9.89;100.00
64544;BME280;50936;51.660;5.616;2023-02-19T12:59:40;102067.09;;;10.17;100.00
64544;BME280;50936;51.660;5.616;2023-02-19T13:02:23;102071.47;;;10.00;100.00
64544;BME280;50936;51.660;5.616;2023-02-19T13:08:14;102084.72;;;9.86;100.00
64544;BME280;50936;51.660;5.616;2023-02-19T13:10:56;102077.56;;;9.85;100.00
64544;BME280;50936;51.660;5.616;2023-02-19T13:13:33;102097.56;;;9.81;100.00
64544;BME280;50936;51.660;5.616;2023-02-19T13:16:13;102090.81;;;9.71;100.00
64544;BME280;50936;51.660;5.616;2023-02-19T13:18:49;102101.91;;;9.64;100.00
64544;BME280;50936;51.660;5.616;2023-02-19T13:21:23;102105.69;;;9.60;100.00
64544;BME280;50936;51.660;5.616;2023-02-19T13:24:20;102093.31;;;9.56;100.00
64544;BME280;50936;51.660;5.616;2023-02-19T13:27:26;102101.88;;;9.46;100.00
64544;BME280;50936;51.660;5.616;2023-02-19T13:30:19;102105.72;;;9.40;100.00
64544;BME280;50936;51.660;5.616;2023-02-19T13:36:00;102118.81;;;9.29;100.00
64544;BME280;50936;51.660;5.616;2023-02-19T13:38:38;102126.06;;;9.27;100.00
64544;BME280;50936;51.660;5.616;2023-02-19T13:41:29;102127.13;;;9.22;100.00
64544;BME280;50936;51.660;5.616;2023-02-19T13:44:03;102136.19;;;9.21;100.00
64544;BME280;50936;51.660;5.616;2023-02-19T13:46:43;102124.66;;;9.18;100.00
64544;BME280;50936;51.660;5.616;2023-02-19T13:51:51;102139.94;;;9.17;100.00
64544;BME280;50936;51.660;5.616;2023-02-19T13:54:28;102132.94;;;9.13;100.00
64544;BME280;50936;51.660;5.616;2023-02-19T13:59:50;102142.97;;;9.10;100.00
64544;BME280;50936;51.660;5.616;2023-02-19T14:05:08;102132.69;;;8.97;100.00
64544;BME280;50936;51.660;5.616;2023-02-19T14:07:47;102137.22;;;8.97;100.00
64544;BME280;50936;51.660;5.616;2023-02-19T14:19:47;102159.66;;;8.75;100.00
64544;BME280;50936;51.660;5.616;2023-02-19T14:25:20;102158.03;;;8.71;100.00
64544;BME280;50936;51.660;5.616;2023-02-19T14:27:51;102156.03;;;8.76;100.00
64544;BME280;50936;51.660;5.616;2023-02-19T14:33:33;102155.97;;;9.00;100.00
64544;BME280;50936;51.660;5.616;2023-02-19T14:38:52;102145.88;;;9.05;100.00
64544;BME280;50936;51.660;5.616;2023-02-19T14:41:26;102154.13;;;9.00;100.00
64544;BME280;50936;51.660;5.616;2023-02-19T14:43:57;102150.69;;;8.97;100.00
64544;BME280;50936;51.660;5.616;2023-02-19T14:49:05;102152.25;;;8.80;100.00
64544;BME280;50936;51.660;5.616;2023-02-19T14:51:42;102150.91;;;8.70;100.00
64544;BME280;50936;51.660;5.616;2023-02-19T14:54:25;102140.63;;;8.58;100.00
64544;BME280;50936;51.660;5.616;2023-02-19T14:57:02;102139.13;;;8.51;100.00
64544;BME280;50936;51.660;5.616;2023-02-19T14:59:37;102133.84;;;8.47;100.00
64544;BME280;50936;51.660;5.616;2023-02-19T15:02:15;102138.41;;;8.45;100.00
64544;BME280;50936;51.660;5.616;2023-02-19T15:04:46;102126.78;;;8.45;100.00
64544;BME280;50936;51.660;5.616;2023-02-19T15:07:18;102123.41;;;8.38;100.00
64544;BME280;50936;51.660;5.616;2023-02-19T15:09:51;102116.28;;;8.37;100.00
64544;BME280;50936;51.660;5.616;2023-02-19T15:12:24;102112.63;;;8.38;100.00
64544;BME280;50936;51.660;5.616;2023-02-19T15:14:59;102107.41;;;8.35;100.00
64544;BME280;50936;51.660;5.616;2023-02-19T15:17:32;102102.94;;;8.34;100.00
64544;BME280;50936;51.660;5.616;2023-02-19T15:20:09;102105.63;;;8.34;100.00
64544;BME280;50936;51.660;5.616;2023-02-19T15:22:41;102102.06;;;8.34;100.00
64544;BME280;50936;51.660;5.616;2023-02-19T15:25:14;102109.13;;;8.36;100.00
64544;BME280;50936;51.660;5.616;2023-02-19T15:27:44;102100.13;;;8.37;100.00
64544;BME280;50936;51.660;5.616;2023-02-19T15:30:21;102101.88;;;8.38;100.00
64544;BME280;50936;51.660;5.616;2023-02-19T15:32:50;102114.41;;;8.39;100.00
64544;BME280;50936;51.660;5.616;2023-02-19T15:35:23;102118.03;;;8.38;100.00